Time;durP1;ratioP1;P1;durP2;ratioP2;P2;SDS_P1;SDS_P2;PMS_P1;PMS_P2;Temp;Humidity;BMP_temperature;BMP_pressure;BME280_temperature;BME280_humidity;BME280_pressure;Samples;Min_cycle;Max_cycle;Signal;HPM_P1;HPM_P2
2022/01/12 00:02:10;;;;;;;4.28;1.92;;;;;;;-11.36;69.71;101152.84;5015435;28;20060;-81
2022/01/12 00:04:37;;;;;;;2.28;1.63;;;;;;;-11.44;69.01;101149.50;5029581;28;20086;-82
2022/01/12 00:07:04;;;;;;;3.30;1.90;;;;;;;-11.62;68.57;101143.31;5014775;28;20050;-85
2022/01/12 00:09:31;;;;;;;3.00;1.23;;;;;;;-11.83;68.84;101110.66;5029352;28;20435;-81
2022/01/12 00:11:59;;;;;;;1.15;0.93;;;;;;;-11.79;68.92;101136.38;5034282;28;20053;-82
2022/01/12 00:14:27;;;;;;;3.60;1.92;;;;;;;-11.78;69.10;101144.88;5021324;28;20483;-84
2022/01/12 00:16:59;;;;;;;2.60;1.52;;;;;;;-11.68;69.03;101151.81;5015914;28;20054;-82
2022/01/12 00:19:28;;;;;;;3.53;1.88;;;;;;;-11.73;68.92;101163.91;5014803;28;20060;-85
2022/01/12 00:21:56;;;;;;;3.35;2.00;;;;;;;-11.90;69.49;101126.75;5014799;28;20057;-84
2022/01/12 00:24:27;;;;;;;1.30;1.17;;;;;;;-11.68;69.12;101152.69;5015357;28;20053;-83
2022/01/12 00:35:13;;;;;;;2.70;1.45;;;;;;;-11.71;69.55;101141.41;5019806;28;20056;-82
2022/01/12 00:37:39;;;;;;;4.75;1.98;;;;;;;-11.77;69.69;101139.97;5017317;28;20070;-84
2022/01/12 00:40:07;;;;;;;6.03;3.20;;;;;;;-11.62;69.87;101149.97;5000841;28;20057;-84
2022/01/12 00:42:34;;;;;;;2.95;1.92;;;;;;;-11.49;70.18;101145.56;5016781;28;20045;-82
2022/01/12 00:45:02;;;;;;;5.20;2.67;;;;;;;-11.56;69.69;101138.06;5017007;28;20057;-81
2022/01/12 00:47:29;;;;;;;3.92;2.25;;;;;;;-11.46;69.89;101163.56;5017566;28;20155;-82
2022/01/12 00:49:56;;;;;;;2.45;1.50;;;;;;;-11.55;70.37;101160.94;5016279;28;20061;-83
2022/01/12 00:52:23;;;;;;;5.97;1.95;;;;;;;-11.56;70.46;101163.28;5016477;28;20471;-82
2022/01/12 00:54:50;;;;;;;3.63;2.13;;;;;;;-11.57;70.83;101152.28;5017342;28;20054;-84
2022/01/12 00:57:18;;;;;;;7.13;2.75;;;;;;;-11.47;70.41;101164.28;5016263;28;20058;-82
2022/01/12 00:59:44;;;;;;;3.38;2.28;;;;;;;-11.36;70.59;101155.38;5033230;28;20042;-82
2022/01/12 01:02:13;;;;;;;4.40;2.10;;;;;;;-11.32;70.76;101151.56;5017337;28;20138;-85
2022/01/12 01:04:40;;;;;;;5.18;2.00;;;;;;;-11.32;71.48;101149.06;5017474;28;20049;-84
2022/01/12 01:07:07;;;;;;;5.45;2.00;;;;;;;-11.37;70.97;101144.41;5016107;28;20053;-83
2022/01/12 01:09:38;;;;;;;3.17;1.48;;;;;;;-11.45;71.08;101147.69;5016254;28;20084;-82
2022/01/12 01:12:06;;;;;;;4.43;2.50;;;;;;;-11.44;71.27;101151.09;5017027;28;20057;-84
2022/01/12 01:14:46;;;;;;;4.55;2.30;;;;;;;-11.52;71.33;101120.00;5015846;28;20153;-83
2022/01/12 01:25:44;;;;;;;4.28;2.25;;;;;;;-11.54;72.14;101137.50;5016884;28;20471;-82
2022/01/12 01:28:14;;;;;;;4.40;2.20;;;;;;;-11.51;71.30;101141.97;5016551;28;20076;-85
2022/01/12 01:30:43;;;;;;;3.22;1.52;;;;;;;-11.55;71.51;101142.34;5016244;28;20069;-82
2022/01/12 01:33:11;;;;;;;5.22;2.10;;;;;;;-11.78;71.22;101122.19;5017283;28;20062;-82
2022/01/12 01:35:43;;;;;;;3.22;1.35;;;;;;;-11.77;70.85;101162.66;5016820;28;20411;-82
2022/01/12 01:38:10;;;;;;;3.03;1.90;;;;;;;-11.90;71.38;101141.00;5023140;28;20065;-85
2022/01/12 01:40:41;;;;;;;4.85;1.90;;;;;;;-11.91;71.03;101139.19;5019795;28;20069;-80
2022/01/12 01:43:23;;;;;;;2.55;1.40;;;;;;;-11.89;71.38;101143.69;5018033;28;20447;-81
2022/01/12 01:54:13;;;;;;;3.95;1.88;;;;;;;-12.01;70.84;101119.63;5001606;28;20420;-84
2022/01/12 01:56:40;;;;;;;4.93;2.45;;;;;;;-12.01;70.92;101119.63;5014720;28;20089;-83
2022/01/12 01:59:08;;;;;;;3.97;1.90;;;;;;;-11.96;70.97;101123.56;5015064;28;20065;-83
2022/01/12 02:01:38;;;;;;;4.90;2.03;;;;;;;-11.98;70.91;101112.41;5014897;28;20467;-82
2022/01/12 02:04:06;;;;;;;3.05;1.70;;;;;;;-11.99;71.06;101134.19;5015656;28;20045;-84
2022/01/12 02:06:38;;;;;;;6.03;2.60;;;;;;;-12.20;71.08;101106.59;4998714;28;20152;-81
2022/01/12 02:09:05;;;;;;;4.15;1.70;;;;;;;-12.16;70.79;101114.66;5014180;28;20499;-84
2022/01/12 02:11:49;;;;;;;4.43;1.58;;;;;;;-12.10;71.32;101123.66;5014131;28;20081;-81
2022/01/12 02:14:17;;;;;;;6.00;2.00;;;;;;;-12.21;70.82;101113.25;4998265;28;20057;-82
2022/01/12 02:16:59;;;;;;;6.22;2.38;;;;;;;-12.28;70.53;101113.31;5015539;28;20096;-81
2022/01/12 02:36:19;;;;;;;4.53;2.30;;;;;;;-12.53;70.95;101083.53;5020208;28;20050;-82
2022/01/12 02:41:32;;;;;;;5.00;2.22;;;;;;;-12.53;71.27;101071.84;5056392;28;20561;-81
2022/01/12 02:54:50;;;;;;;3.10;1.52;;;;;;;-12.80;71.23;101098.19;5065485;28;20068;-84
2022/01/12 02:57:19;;;;;;;4.72;2.15;;;;;;;-12.73;71.29;101113.97;5055881;28;20059;-84
2022/01/12 03:00:44;;;;;;;3.40;1.00;;;;;;;-12.79;71.38;101112.56;5053063;28;20064;-83
2022/01/12 03:02:40;;;;;;;1.80;1.00;;;;;;;-12.92;71.52;101083.31;5015567;28;20087;-83
2022/01/12 03:05:33;;;;;;;3.90;2.05;;;;;;;-12.88;71.75;101068.72;5054573;28;20057;-84
2022/01/12 03:08:10;;;;;;;4.05;1.70;;;;;;;-12.80;71.32;101070.50;5036678;28;20079;-81
2022/01/12 03:10:38;;;;;;;6.95;1.80;;;;;;;-12.52;70.99;101107.97;5053647;28;20144;-82
2022/01/12 03:13:08;;;;;;;3.78;1.88;;;;;;;-12.46;71.56;101111.19;5036363;28;20422;-84
2022/01/12 03:15:40;;;;;;;5.15;2.15;;;;;;;-12.49;70.99;101104.19;5055125;28;20589;-84
2022/01/12 03:18:09;;;;;;;5.10;2.40;;;;;;;-12.60;71.48;101092.91;5036316;28;20056;-82
2022/01/12 03:20:38;;;;;;;3.95;2.22;;;;;;;-12.53;70.80;101113.75;5054367;28;20053;-87
2022/01/12 03:23:06;;;;;;;4.93;2.08;;;;;;;-12.68;71.41;101085.22;5036473;28;20059;-84
2022/01/12 03:25:34;;;;;;;4.07;1.63;;;;;;;-12.75;70.91;101086.13;5036247;28;20415;-83
2022/01/12 03:28:03;;;;;;;4.22;1.75;;;;;;;-12.72;70.84;101099.06;5036605;28;20143;-82
2022/01/12 03:30:37;;;;;;;2.50;1.40;;;;;;;-12.74;70.86;101097.09;5036949;28;20076;-83
2022/01/12 03:33:11;;;;;;;2.72;1.58;;;;;;;-12.74;71.00;101085.41;5054525;28;20057;-82
2022/01/12 04:10:23;;;;;;;2.20;1.63;;;;;;;-13.13;70.57;101081.72;5053549;28;20064;-83
2022/01/12 04:12:52;;;;;;;4.88;2.80;;;;;;;-12.85;71.07;101093.34;5035840;28;20533;-82
2022/01/12 04:15:19;;;;;;;3.58;2.00;;;;;;;-12.82;70.25;101102.16;5037669;28;20123;-85
2022/01/12 04:17:46;;;;;;;2.65;1.60;;;;;;;-12.83;70.46;101097.81;5035158;28;20423;-80
2022/01/12 04:20:13;;;;;;;4.15;2.38;;;;;;;-12.77;70.37;101095.13;5035636;28;20056;-82
2022/01/12 04:25:26;;;;;;;1.73;1.05;;;;;;;-12.67;70.35;101099.56;5035328;28;20231;-85
2022/01/12 04:27:53;;;;;;;4.57;1.40;;;;;;;-12.76;70.24;101103.56;5050333;28;20052;-80
2022/01/12 04:30:20;;;;;;;3.95;2.13;;;;;;;-12.71;70.44;101100.88;5034882;28;20210;-81
2022/01/12 04:32:47;;;;;;;4.60;2.55;;;;;;;-12.77;70.24;101069.97;5052723;28;20049;-83
2022/01/12 04:35:16;;;;;;;3.38;1.67;;;;;;;-12.55;70.55;101105.13;5035919;28;20499;-82
2022/01/12 04:37:43;;;;;;;4.95;2.05;;;;;;;-12.78;70.74;101078.22;5051053;28;20071;-82
2022/01/12 04:40:10;;;;;;;5.85;2.33;;;;;;;-12.62;70.30;101098.50;5034593;28;20399;-83
2022/01/12 04:42:38;;;;;;;4.60;2.03;;;;;;;-12.62;70.47;101081.78;5034903;28;20052;-82
2022/01/12 04:45:32;;;;;;;8.18;2.60;;;;;;;-12.53;70.25;101099.53;5034805;28;20103;-79
2022/01/12 04:48:08;;;;;;;4.25;1.90;;;;;;;-12.54;70.11;101106.91;5034948;28;20053;-81
2022/01/12 04:50:37;;;;;;;4.50;2.35;;;;;;;-12.59;69.96;101113.94;5053230;28;20064;-80
2022/01/12 04:53:04;;;;;;;6.40;3.03;;;;;;;-12.69;70.32;101106.97;5034640;28;20131;-81
2022/01/12 04:55:32;;;;;;;5.45;2.38;;;;;;;-12.62;70.40;101109.47;5052529;28;20057;-82
2022/01/12 04:57:59;;;;;;;8.23;2.78;;;;;;;-12.67;69.54;101115.56;5052907;28;20147;-80
2022/01/12 05:00:29;;;;;;;6.00;2.75;;;;;;;-12.66;69.84;101112.34;5034887;28;20053;-81
2022/01/12 05:14:04;;;;;;;6.43;2.45;;;;;;;-12.61;69.69;101125.44;4956798;28;20512;-81
2022/01/12 05:16:31;;;;;;;5.18;2.55;;;;;;;-12.66;69.32;101122.41;5023352;28;20087;-80
2022/01/12 05:19:00;;;;;;;5.30;2.92;;;;;;;-12.82;69.19;101118.84;5038143;28;20060;-81
2022/01/12 05:21:28;;;;;;;5.20;2.33;;;;;;;-12.85;69.74;101123.53;5022423;28;20052;-81
2022/01/12 05:23:55;;;;;;;10.27;3.28;;;;;;;-12.85;69.64;101128.56;5038515;28;20049;-82
2022/01/12 05:26:22;;;;;;;5.95;2.30;;;;;;;-12.87;69.77;101130.91;5038253;28;20056;-80
2022/01/12 05:28:49;;;;;;;5.80;2.60;;;;;;;-12.76;69.57;101129.63;5038004;28;20445;-80
2022/01/12 05:31:16;;;;;;;3.75;2.03;;;;;;;-12.70;69.05;101126.94;5038258;28;20052;-81
2022/01/12 05:33:47;;;;;;;6.93;3.22;;;;;;;-12.91;68.53;101117.81;5040150;28;20075;-80
2022/01/12 05:36:17;;;;;;;5.55;2.35;;;;;;;-12.91;69.62;101117.81;5049143;28;20068;-81
2022/01/12 05:38:45;;;;;;;2.30;1.33;;;;;;;-13.07;68.81;101100.03;5038540;28;20052;-82
2022/01/12 05:41:13;;;;;;;4.97;2.63;;;;;;;-13.09;69.29;101121.59;5037724;28;20048;-80
2022/01/12 05:43:42;;;;;;;4.65;1.58;;;;;;;-13.26;69.94;101104.56;5054395;28;20563;-80
2022/01/12 05:46:11;;;;;;;5.20;2.38;;;;;;;-13.35;70.40;101101.00;5037022;28;20049;-81
2022/01/12 05:51:35;;;;;;;6.90;2.88;;;;;;;-13.43;69.82;101111.03;5038002;28;20053;-81
2022/01/12 05:54:03;;;;;;;6.63;2.55;;;;;;;-13.47;69.95;101108.88;5037553;28;20071;-80
2022/01/12 05:56:30;;;;;;;4.32;2.42;;;;;;;-13.38;70.30;101121.63;5037414;28;20487;-82
2022/01/12 05:58:56;;;;;;;7.45;2.80;;;;;;;-13.39;69.75;101113.94;5055182;28;20064;-82
2022/01/12 06:01:24;;;;;;;6.20;1.90;;;;;;;-13.51;70.37;101101.69;5037439;28;20045;-80
2022/01/12 06:03:52;;;;;;;6.15;3.20;;;;;;;-13.40;70.20;101123.06;5037283;28;20060;-82
2022/01/12 06:06:19;;;;;;;3.63;2.08;;;;;;;-13.41;70.49;101123.81;5037459;28;20507;-81
2022/01/12 06:08:46;;;;;;;5.78;2.85;;;;;;;-13.46;70.31;101120.75;5037157;28;20526;-81
2022/01/12 06:11:15;;;;;;;3.92;2.47;;;;;;;-13.45;69.89;101119.13;5037167;28;20140;-81
2022/01/12 06:13:44;;;;;;;9.20;3.05;;;;;;;-13.57;70.22;101111.06;5053384;28;20065;-82
2022/01/12 06:16:11;;;;;;;7.28;3.00;;;;;;;-13.68;69.85;101096.31;5036837;28;20064;-82
2022/01/12 06:18:40;;;;;;;7.93;2.78;;;;;;;-13.38;70.11;101126.66;5037059;28;20057;-81
2022/01/12 06:21:07;;;;;;;7.43;3.15;;;;;;;-13.45;70.09;101116.63;5036891;28;20080;-84
2022/01/12 06:23:37;;;;;;;7.97;3.40;;;;;;;-13.43;69.86;101126.13;5055021;28;20065;-81
2022/01/12 06:26:04;;;;;;;5.53;2.03;;;;;;;-13.49;70.32;101132.06;5037273;28;20071;-81
2022/01/12 06:31:13;;;;;;;9.07;2.97;;;;;;;-13.46;70.76;101138.34;5054652;28;20052;-80
2022/01/12 06:33:43;;;;;;;4.75;2.97;;;;;;;-13.47;69.74;101141.56;5036798;28;20099;-82
2022/01/12 06:36:12;;;;;;;4.97;2.75;;;;;;;-13.42;70.20;101132.03;5037090;28;20080;-81
2022/01/12 06:38:40;;;;;;;7.95;3.03;;;;;;;-13.41;69.86;101151.47;5054698;28;20053;-81
2022/01/12 06:41:07;;;;;;;7.55;2.47;;;;;;;-13.53;69.95;101122.34;5019825;28;20057;-82
2022/01/12 06:43:36;;;;;;;7.03;3.60;;;;;;;-13.34;69.95;101148.03;5040648;28;20506;-80
2022/01/12 06:46:04;;;;;;;7.03;3.10;;;;;;;-13.26;69.69;101142.28;5036773;28;20060;-81
2022/01/12 06:48:32;;;;;;;8.98;3.50;;;;;;;-13.16;69.38;101140.13;5054475;28;20067;-80
2022/01/12 06:51:00;;;;;;;9.30;3.40;;;;;;;-13.11;69.37;101126.44;5036223;28;20486;-81
2022/01/12 06:53:27;;;;;;;5.80;3.03;;;;;;;-13.15;69.00;101121.78;5036564;28;20052;-81
2022/01/12 06:55:54;;;;;;;5.25;2.65;;;;;;;-13.23;69.23;101114.94;5036449;28;20457;-81
2022/01/12 06:58:21;;;;;;;6.53;3.20;;;;;;;-13.25;69.30;101113.88;5036455;28;20060;-80
2022/01/12 07:00:51;;;;;;;4.23;2.73;;;;;;;-13.30;68.92;101104.94;5037299;28;20478;-80
2022/01/12 07:03:22;;;;;;;10.20;3.40;;;;;;;-13.32;68.82;101091.28;5035860;28;20498;-84
2022/01/12 07:05:56;;;;;;;9.35;3.08;;;;;;;-13.28;68.88;101114.41;5034935;28;20053;-81
2022/01/12 07:08:23;;;;;;;9.88;3.22;;;;;;;-13.33;69.24;101097.94;5036041;28;20052;-81
2022/01/12 07:10:52;;;;;;;8.15;2.58;;;;;;;-13.15;68.87;101109.19;5036733;28;20095;-82
2022/01/12 07:13:23;;;;;;;10.15;3.75;;;;;;;-13.23;68.82;101093.22;5036569;28;20053;-82
2022/01/12 07:15:55;;;;;;;5.53;2.35;;;;;;;-13.27;68.84;101095.19;5053403;28;20496;-80
2022/01/12 07:18:25;;;;;;;4.43;2.80;;;;;;;-13.20;68.28;101122.88;5035647;28;20060;-80
2022/01/12 07:20:52;;;;;;;;;;;;;;;-13.34;68.27;101112.84;5043164;28;20057;-80
2022/01/12 07:23:19;;;;;;;6.40;2.75;;;;;;;-13.43;68.79;101117.69;5053678;28;20010;-80
2022/01/12 07:25:46;;;;;;;6.88;3.28;;;;;;;-13.46;68.64;101097.25;5057611;28;20053;-80
2022/01/12 07:28:13;;;;;;;7.32;2.67;;;;;;;-13.19;68.69;101128.06;5056296;28;20063;-80
2022/01/12 07:30:40;;;;;;;2.40;1.85;;;;;;;-13.21;67.75;101124.47;5054736;28;20061;-79
2022/01/12 07:33:10;;;;;;;8.32;2.95;;;;;;;-13.31;68.07;101108.16;5056307;28;20049;-77
2022/01/12 07:35:41;;;;;;;3.83;1.67;;;;;;;-13.22;68.78;101122.69;5056113;28;20071;-81
2022/01/12 07:38:08;;;;;;;;;;;;;;;-13.24;68.58;101113.19;5024989;28;20065;-80
2022/01/12 07:40:35;;;;;;;6.28;2.92;;;;;;;-13.30;68.19;101115.00;5053887;28;20302;-82
2022/01/12 07:43:07;;;;;;;8.95;2.58;;;;;;;-13.48;68.26;101112.13;5057581;28;20077;-83
2022/01/12 07:45:40;;;;;;;5.40;1.98;;;;;;;-13.63;68.32;101108.72;5054305;28;20053;-81
2022/01/12 07:48:08;;;;;;;6.72;2.17;;;;;;;-13.53;68.83;101125.75;5052745;28;20494;-81
2022/01/12 07:50:34;;;;;;;5.25;2.60;;;;;;;-13.46;68.33;101120.75;5052930;28;20061;-81
2022/01/12 07:53:34;;;;;;;5.90;2.42;;;;;;;-13.73;68.51;101092.38;5054154;28;20060;-82
2022/01/12 07:56:06;;;;;;;5.20;2.17;;;;;;;-13.73;68.18;101087.34;5052823;28;20053;-84
2022/01/12 07:58:33;;;;;;;3.30;2.00;;;;;;;-13.55;67.88;101111.22;5053603;28;20061;-82
2022/01/12 08:01:00;;;;;;;4.80;2.47;;;;;;;-13.49;68.54;101115.34;5053075;28;20057;-80
2022/01/12 08:03:27;;;;;;;3.15;2.20;;;;;;;-13.56;67.64;101107.81;5052431;28;20052;-81
2022/01/12 08:05:54;;;;;;;6.32;3.35;;;;;;;-13.44;67.98;101099.22;5051871;28;20057;-81
2022/01/12 08:08:52;;;;;;;4.95;2.15;;;;;;;-13.37;67.99;101102.44;5055336;28;20052;-81
2022/01/12 08:11:23;;;;;;;6.15;2.95;;;;;;;-13.55;68.17;101092.00;5054982;28;20063;-82
2022/01/12 08:13:52;;;;;;;7.57;2.90;;;;;;;-13.37;68.34;101113.38;5035673;28;20045;-83
2022/01/12 08:16:19;;;;;;;6.75;3.10;;;;;;;-13.28;68.38;101103.50;5055720;28;20057;-82
2022/01/12 08:18:46;;;;;;;7.00;2.42;;;;;;;-13.25;67.50;101104.75;5055597;28;20544;-82
2022/01/12 08:21:51;;;;;;;5.55;2.45;;;;;;;-13.50;67.98;101095.97;5056794;28;20064;-83
2022/01/12 08:24:14;;;;;;;7.40;3.13;;;;;;;-13.53;68.01;101065.44;5055179;28;20056;-82
2022/01/12 08:27:15;;;;;;;5.22;2.90;;;;;;;-13.29;67.66;101102.63;5034369;28;20122;-82
2022/01/12 08:29:42;;;;;;;8.50;3.38;;;;;;;-13.32;67.50;101093.81;5035265;28;20052;-80
2022/01/12 08:32:10;;;;;;;3.45;2.28;;;;;;;-13.20;67.51;101120.34;5035580;28;20553;-84
2022/01/12 08:34:37;;;;;;;4.55;2.72;;;;;;;-13.25;66.96;101089.66;5053033;28;20498;-84
2022/01/12 08:37:04;;;;;;;8.23;3.38;;;;;;;-13.00;67.47;101102.53;5053159;28;20473;-86
2022/01/12 08:39:32;;;;;;;5.40;2.75;;;;;;;-13.14;67.29;101044.69;5055703;28;20053;-86
2022/01/12 08:43:05;;;;;;;9.32;3.30;;;;;;;-13.06;66.73;101042.34;5034958;28;20049;-84
2022/01/12 08:45:42;;;;;;;7.57;3.08;;;;;;;-13.10;67.11;101007.50;5053317;28;20106;-83
2022/01/12 08:48:09;;;;;;;6.72;2.47;;;;;;;-12.72;66.22;101106.59;5051998;28;20057;-85
2022/01/12 08:50:36;;;;;;;7.07;3.25;;;;;;;-12.84;66.38;101101.09;5057399;28;20050;-85
2022/01/12 08:53:03;;;;;;;6.78;2.55;;;;;;;-12.70;66.87;101081.63;5057672;28;20136;-84
2022/01/12 08:55:32;;;;;;;9.38;3.22;;;;;;;-12.68;66.81;101070.09;5056670;28;20516;-82
2022/01/12 08:57:59;;;;;;;10.05;3.88;;;;;;;-12.58;66.48;101072.97;5059367;28;20052;-83
2022/01/12 09:00:26;;;;;;;3.47;2.22;;;;;;;-12.73;66.25;101039.38;5055055;28;20082;-83
2022/01/12 09:02:54;;;;;;;12.57;3.42;;;;;;;-12.57;66.43;101059.63;5038942;28;20061;-83
2022/01/12 09:05:45;;;;;;;6.38;2.85;;;;;;;-12.54;66.41;101056.56;5038757;28;20075;-84
2022/01/12 09:08:59;;;;;;;2.58;1.98;;;;;;;-12.75;65.55;101070.13;5038081;28;20437;-81
2022/01/12 09:11:26;;;;;;;4.97;2.58;;;;;;;-12.91;66.29;101062.44;5057660;28;20057;-86
2022/01/12 09:13:53;;;;;;;3.50;2.40;;;;;;;-12.85;67.06;101071.59;5057575;28;20045;-83
2022/01/12 09:16:33;;;;;;;7.93;3.10;;;;;;;-12.91;66.74;101030.63;5057127;28;20060;-82
2022/01/12 09:19:00;;;;;;;6.65;3.30;;;;;;;-12.49;66.42;101070.59;5058763;28;20059;-83
2022/01/12 09:21:29;;;;;;;4.97;2.75;;;;;;;-12.48;66.65;101052.22;5063211;28;20057;-84
2022/01/12 09:24:06;;;;;;;7.90;3.33;;;;;;;-12.46;66.46;101048.25;5058823;28;20053;-84
2022/01/12 09:26:33;;;;;;;7.53;2.63;;;;;;;-12.32;66.35;101045.69;5057723;28;20052;-85
2022/01/12 09:29:02;;;;;;;9.80;3.92;;;;;;;-12.38;66.09;101040.84;5056658;28;20059;-83
2022/01/12 09:31:29;;;;;;;7.22;2.83;;;;;;;-12.29;66.58;101040.97;5055405;28;20061;-82
2022/01/12 09:33:56;;;;;;;6.65;3.30;;;;;;;-12.34;66.18;101021.94;5056529;28;20080;-82
2022/01/12 09:36:23;;;;;;;7.50;3.38;;;;;;;-12.24;65.91;101034.81;5056302;28;20053;-84
2022/01/12 09:38:54;;;;;;;;;;;;;;;-12.28;65.70;101039.34;5056785;28;20083;-83
2022/01/12 09:41:24;;;;;;;5.10;2.38;;;;;;;-12.42;65.75;101027.72;5056790;28;19924;-82
2022/01/12 09:43:52;;;;;;;8.15;3.70;;;;;;;-12.32;65.77;101040.63;5056708;28;20056;-83
2022/01/12 09:46:22;;;;;;;7.22;3.10;;;;;;;-12.51;66.05;100991.47;5056024;28;20077;-82
2022/01/12 09:48:49;;;;;;;2.97;1.60;;;;;;;-12.20;65.86;101021.84;5056283;28;20052;-82
2022/01/12 09:51:16;;;;;;;4.85;2.72;;;;;;;-12.39;65.13;101002.88;5056318;28;20106;-82
2022/01/12 09:53:44;;;;;;;4.97;3.00;;;;;;;-12.34;65.46;101015.97;5055825;28;20045;-82
2022/01/12 09:56:16;;;;;;;9.52;3.47;;;;;;;-12.32;65.73;101017.03;5055703;28;20147;-83
2022/01/12 09:58:50;;;;;;;6.90;3.28;;;;;;;-12.25;65.66;101005.31;5038530;28;20056;-81
2022/01/12 10:01:30;;;;;;;4.97;2.65;;;;;;;-12.07;65.52;101015.66;5055343;28;20053;-82
2022/01/12 10:04:10;;;;;;;;;;;;;;;-12.07;65.16;101010.59;5038070;28;20059;-82
2022/01/12 10:06:49;;;;;;;6.07;3.15;;;;;;;-11.76;64.95;100989.66;5052810;28;20357;-82
2022/01/12 10:09:21;;;;;;;7.25;3.22;;;;;;;-11.45;64.08;100996.38;5055080;28;20510;-82
2022/01/12 10:11:52;;;;;;;9.20;3.58;;;;;;;-11.27;63.94;101002.53;5050198;28;20048;-83
2022/01/12 10:14:21;;;;;;;10.82;3.55;;;;;;;-11.41;63.61;100980.84;5036548;28;20455;-82
2022/01/12 10:16:57;;;;;;;5.05;2.50;;;;;;;-11.38;63.74;101003.88;5055846;28;20072;-81
2022/01/12 10:19:25;;;;;;;6.15;2.45;;;;;;;-11.61;63.61;101008.06;5032641;28;20057;-83
2022/01/12 10:21:52;;;;;;;4.20;2.58;;;;;;;-11.77;64.61;100983.69;5054408;28;20049;-80
2022/01/12 10:24:20;;;;;;;3.50;1.95;;;;;;;-11.56;64.13;101007.81;5054212;28;20041;-80
2022/01/12 10:26:48;;;;;;;7.82;3.15;;;;;;;-11.65;64.04;100998.38;5054187;28;20068;-80
2022/01/12 10:29:20;;;;;;;7.45;3.25;;;;;;;-11.47;64.07;101010.44;5036992;28;20103;-81
2022/01/12 10:31:46;;;;;;;;;;;;;;;-11.50;64.24;101002.56;5056829;28;20053;-82
2022/01/12 10:34:22;;;;;;;10.40;3.58;;;;;;;-11.55;63.83;100999.53;5058449;28;19925;-81
2022/01/12 10:36:49;;;;;;;5.47;3.55;;;;;;;-11.42;64.01;100976.53;5054401;28;20091;-81
2022/01/12 10:39:17;;;;;;;8.15;3.72;;;;;;;-11.17;63.37;100989.25;5035892;28;20413;-81
2022/01/12 10:41:56;;;;;;;5.05;3.58;;;;;;;-11.25;63.86;100990.94;5054674;28;20052;-81
2022/01/12 10:44:29;;;;;;;7.63;3.08;;;;;;;-11.27;63.11;100989.91;5054484;28;20049;-81
2022/01/12 10:47:08;;;;;;;14.15;4.00;;;;;;;-11.41;63.57;100983.38;5054377;28;20056;-82
2022/01/12 10:49:38;;;;;;;6.90;3.43;;;;;;;-11.36;63.88;100981.31;5053993;28;20171;-83
2022/01/12 10:52:08;;;;;;;5.38;3.10;;;;;;;-11.39;63.73;100976.84;5038165;28;20190;-81
2022/01/12 10:55:04;;;;;;;5.57;2.92;;;;;;;-11.40;63.57;100972.56;5053659;28;20057;-81
2022/01/12 10:57:34;;;;;;;10.18;4.07;;;;;;;-11.28;64.13;100977.13;5048585;28;20061;-83
2022/01/12 11:00:09;;;;;;;7.18;3.22;;;;;;;-11.14;63.88;100959.28;5055133;28;20091;-82
2022/01/12 11:02:40;;;;;;;7.60;3.60;;;;;;;-11.02;63.23;100968.16;5054296;28;20048;-84
2022/01/12 11:05:08;;;;;;;6.95;2.63;;;;;;;-11.14;62.87;100975.34;5054393;28;20080;-82
2022/01/12 11:07:36;;;;;;;7.50;3.75;;;;;;;-11.17;63.12;100975.00;5036007;28;20054;-82
2022/01/12 11:10:06;;;;;;;6.50;3.55;;;;;;;-10.99;62.66;100986.16;5054919;28;20052;-84
2022/01/12 11:12:35;;;;;;;7.25;3.22;;;;;;;-11.03;62.41;100985.66;5054880;28;20057;-82
2022/01/12 11:15:14;;;;;;;5.97;3.17;;;;;;;-11.20;62.27;100991.47;5039072;28;20099;-80
2022/01/12 11:17:43;;;;;;;7.67;3.50;;;;;;;-11.48;62.67;100973.34;5035631;28;20052;-81
2022/01/12 11:20:18;;;;;;;11.75;4.00;;;;;;;-11.53;63.24;100961.84;5036368;28;20341;-82
2022/01/12 11:23:06;;;;;;;5.60;2.95;;;;;;;-11.73;63.22;100974.84;5054075;28;20049;-81
2022/01/12 11:25:35;;;;;;;7.97;3.53;;;;;;;-12.02;64.00;100961.59;5053749;28;20053;-81
2022/01/12 11:28:07;;;;;;;7.65;3.70;;;;;;;-12.06;64.05;100932.69;5054109;28;20052;-81
2022/01/12 11:30:35;;;;;;;8.00;3.75;;;;;;;-11.89;64.39;100942.06;5053458;28;20099;-80
2022/01/12 11:33:09;;;;;;;6.43;2.72;;;;;;;-12.11;63.61;100918.66;5052281;28;20053;-81
2022/01/12 11:35:39;;;;;;;5.70;3.03;;;;;;;-12.21;64.09;100934.41;5035755;28;20469;-82
2022/01/12 11:38:08;;;;;;;7.07;3.08;;;;;;;-12.22;64.09;100936.75;5053319;28;20157;-81
2022/01/12 11:40:41;;;;;;;8.48;3.83;;;;;;;-12.21;64.19;100926.84;5051931;28;20518;-80
2022/01/12 11:43:21;;;;;;;9.55;3.53;;;;;;;-12.11;63.93;100920.28;5053656;28;20080;-81
2022/01/12 11:46:09;;;;;;;5.28;2.70;;;;;;;-12.23;64.04;100904.75;5053774;28;20053;-80
2022/01/12 11:48:41;;;;;;;5.15;2.60;;;;;;;-12.28;64.29;100918.44;5053745;28;20081;-80
2022/01/12 11:51:09;;;;;;;5.82;2.55;;;;;;;-12.34;64.49;100915.25;5039067;28;20081;-81
2022/01/12 11:53:51;;;;;;;5.90;2.83;;;;;;;-12.41;64.67;100933.81;5052571;28;20049;-81
2022/01/12 11:56:24;;;;;;;6.60;3.05;;;;;;;-12.45;64.74;100914.97;5052490;28;20426;-80
2022/01/12 11:59:31;;;;;;;4.63;2.55;;;;;;;-12.42;64.68;100914.41;5053221;28;20092;-81
2022/01/12 12:02:12;;;;;;;5.53;2.35;;;;;;;-12.55;64.81;100881.06;5055064;28;20171;-81
2022/01/12 12:04:55;;;;;;;6.57;3.20;;;;;;;-12.62;65.05;100887.94;5006716;28;20049;-81
2022/01/12 12:07:23;;;;;;;6.93;3.20;;;;;;;-12.64;64.98;100879.31;5018682;28;20075;-81
2022/01/12 12:09:54;;;;;;;6.80;3.47;;;;;;;-12.81;65.19;100844.72;5035857;28;20129;-81
2022/01/12 12:12:29;;;;;;;7.47;3.33;;;;;;;-12.60;65.12;100890.63;5051031;28;20061;-81
2022/01/12 12:14:58;;;;;;;6.68;3.30;;;;;;;-12.54;65.11;100898.84;5054431;28;20506;-81
2022/01/12 12:17:28;;;;;;;7.35;3.88;;;;;;;-12.52;64.76;100893.97;5039046;28;20481;-82
2022/01/12 12:19:55;;;;;;;9.87;4.10;;;;;;;-12.52;64.89;100888.94;5057011;28;20152;-81
2022/01/12 12:22:29;;;;;;;11.00;4.22;;;;;;;-12.55;65.36;100879.44;5052282;28;20290;-79
2022/01/12 12:25:06;;;;;;;8.10;3.53;;;;;;;-12.45;64.99;100887.28;5034788;28;20119;-82
2022/01/12 12:27:36;;;;;;;14.65;4.25;;;;;;;-12.43;65.03;100889.94;5053331;28;20502;-81
2022/01/12 12:30:06;;;;;;;8.63;3.92;;;;;;;-12.40;64.85;100892.81;5036436;28;20059;-80
2022/01/12 12:32:43;;;;;;;9.38;3.45;;;;;;;-12.54;64.97;100886.25;5051422;28;20057;-82
2022/01/12 12:35:35;;;;;;;9.77;4.18;;;;;;;-12.49;65.47;100894.34;5034275;28;20056;-82
2022/01/12 12:38:08;;;;;;;10.07;3.72;;;;;;;-12.58;65.52;100877.50;5052222;28;20465;-81
2022/01/12 12:40:37;;;;;;;12.10;4.85;;;;;;;-12.48;65.44;100891.06;5052664;28;20110;-81
2022/01/12 12:43:08;;;;;;;8.80;3.42;;;;;;;-12.54;65.63;100882.84;5053295;28;20053;-80
2022/01/12 12:46:09;;;;;;;11.50;4.00;;;;;;;-12.61;65.71;100893.88;5052462;28;20103;-81
2022/01/12 12:48:39;;;;;;;7.05;3.22;;;;;;;-12.76;66.14;100882.09;5040757;28;20053;-80
2022/01/12 12:51:09;;;;;;;11.13;4.00;;;;;;;-12.93;66.16;100867.63;5052829;28;20159;-82
2022/01/12 12:53:38;;;;;;;11.40;5.17;;;;;;;-12.79;66.19;100877.63;5053483;28;20057;-82
2022/01/12 12:56:12;;;;;;;9.63;3.70;;;;;;;-12.90;66.24;100868.00;5052901;28;20060;-82
2022/01/12 12:58:40;;;;;;;12.68;3.67;;;;;;;-12.81;66.33;100869.91;5052805;28;20052;-84
2022/01/12 13:01:12;;;;;;;8.00;3.78;;;;;;;-12.68;66.27;100891.41;5056160;28;20045;-84
2022/01/12 13:03:49;;;;;;;10.65;3.50;;;;;;;-12.72;65.79;100880.09;5052236;28;20063;-82
2022/01/12 13:06:20;;;;;;;11.52;3.65;;;;;;;-12.75;66.18;100887.31;5053123;28;20114;-83
2022/01/12 13:08:52;;;;;;;7.15;3.25;;;;;;;-12.76;66.52;100884.63;5052489;28;20053;-83
2022/01/12 13:11:30;;;;;;;11.25;3.72;;;;;;;-12.81;66.80;100881.59;5053591;28;20083;-82
2022/01/12 13:14:03;;;;;;;9.57;4.20;;;;;;;-12.76;66.31;100877.97;5034964;28;20051;-82
2022/01/12 13:16:30;;;;;;;7.45;3.30;;;;;;;-12.71;66.54;100874.34;5054048;28;20182;-83
2022/01/12 13:19:06;;;;;;;10.30;3.53;;;;;;;-12.74;66.31;100870.59;5054030;28;20099;-82
2022/01/12 13:21:36;;;;;;;6.82;3.50;;;;;;;-12.73;66.68;100868.25;5051160;28;20506;-83
2022/01/12 13:24:03;;;;;;;8.55;3.78;;;;;;;-12.92;66.39;100839.25;5053831;28;20114;-84
2022/01/12 13:26:32;;;;;;;7.22;3.08;;;;;;;-12.87;66.90;100869.22;5055303;28;20056;-84